createdAt,value
2018-05-16T00:00:56.915Z,19.37
2018-05-16T00:01:57.637Z,19.26
2018-05-16T00:02:58.350Z,19.26
2018-05-16T00:03:59.078Z,19.27
2018-05-16T00:04:59.795Z,19.26
2018-05-16T00:06:00.512Z,19.18
2018-05-16T00:07:01.240Z,19.27
2018-05-16T00:08:02.042Z,19.15
2018-05-16T00:09:02.683Z,19.12
2018-05-16T00:10:03.402Z,19.08
2018-05-16T00:11:04.115Z,19.00
2018-05-16T00:12:04.827Z,18.92
2018-05-16T00:13:05.541Z,18.88
2018-05-16T00:14:06.257Z,18.73
2018-05-16T00:15:06.972Z,18.75
2018-05-16T00:16:07.699Z,18.75
2018-05-16T00:17:08.414Z,18.75
2018-05-16T00:18:09.131Z,18.78
2018-05-16T00:19:09.846Z,18.86
2018-05-16T00:20:10.560Z,18.77
2018-05-16T00:21:11.274Z,18.78
2018-05-16T00:22:11.987Z,18.77
2018-05-16T00:23:12.702Z,18.74
2018-05-16T00:24:13.417Z,18.70
2018-05-16T00:25:14.130Z,18.58
2018-05-16T00:26:14.847Z,18.59
2018-05-16T00:27:15.561Z,18.55
2018-05-16T00:28:16.276Z,18.53
2018-05-16T00:29:16.989Z,18.44
2018-05-16T00:30:17.704Z,18.40
2018-05-16T00:31:18.418Z,18.34
2018-05-16T00:32:19.132Z,18.15
2018-05-16T00:33:19.845Z,18.05
2018-05-16T00:34:20.558Z,18.05
2018-05-16T00:35:21.273Z,18.03
2018-05-16T00:36:22.001Z,18.01
2018-05-16T00:37:22.726Z,18.03
2018-05-16T00:38:23.430Z,18.01
2018-05-16T00:39:24.159Z,17.82
2018-05-16T00:40:24.873Z,17.82
2018-05-16T00:41:25.589Z,17.67
2018-05-16T00:42:26.303Z,17.57
2018-05-16T00:43:27.019Z,17.49
2018-05-16T00:44:27.735Z,17.42
2018-05-16T00:45:28.455Z,17.39
2018-05-16T00:46:29.166Z,17.51
2018-05-16T00:47:29.881Z,17.44
2018-05-16T00:48:30.600Z,17.51
2018-05-16T00:49:31.329Z,17.33
2018-05-16T00:50:32.043Z,17.30
2018-05-16T00:51:32.758Z,17.31
2018-05-16T00:52:33.474Z,17.12
2018-05-16T00:53:34.187Z,17.06
2018-05-16T00:54:34.902Z,17.01
2018-05-16T00:55:35.616Z,16.99
2018-05-16T00:56:36.330Z,16.84
2018-05-16T00:57:37.045Z,16.75
2018-05-16T00:58:37.761Z,16.72
2018-05-16T00:59:38.474Z,16.71
2018-05-16T01:00:39.189Z,16.72
2018-05-16T01:01:39.902Z,16.53
2018-05-16T01:02:40.616Z,16.50
2018-05-16T01:03:41.333Z,16.42
2018-05-16T01:04:42.056Z,16.54
2018-05-16T01:05:42.769Z,16.46
2018-05-16T01:06:43.501Z,16.50
2018-05-16T01:07:44.210Z,16.49
2018-05-16T01:08:44.922Z,16.53
2018-05-16T01:09:45.637Z,16.53
2018-05-16T01:10:46.348Z,16.54
2018-05-16T01:11:47.062Z,16.51
2018-05-16T01:12:47.776Z,16.42
2018-05-16T01:13:48.489Z,16.36
2018-05-16T01:14:49.203Z,16.38
2018-05-16T01:15:49.929Z,16.50
2018-05-16T01:16:50.644Z,16.46
2018-05-16T01:17:51.357Z,16.39
2018-05-16T01:18:52.071Z,16.47
2018-05-16T01:19:52.786Z,16.51
2018-05-16T01:20:53.495Z,16.51
2018-05-16T01:21:54.207Z,16.51
2018-05-16T01:22:54.921Z,16.54
2018-05-16T01:23:55.633Z,16.53
2018-05-16T01:24:56.347Z,16.54
2018-05-16T01:25:57.057Z,16.61
2018-05-16T01:26:57.771Z,16.64
2018-05-16T01:27:58.496Z,16.66
2018-05-16T01:28:59.211Z,16.60
2018-05-16T01:29:59.926Z,16.54
2018-05-16T01:31:00.638Z,16.43
2018-05-16T01:32:01.354Z,16.51
2018-05-16T01:33:02.071Z,16.56
2018-05-16T01:34:02.783Z,16.46
2018-05-16T01:35:03.495Z,16.38
2018-05-16T01:36:04.208Z,16.38
2018-05-16T01:37:04.923Z,16.38
2018-05-16T01:38:05.637Z,16.50
2018-05-16T01:39:06.351Z,16.51
2018-05-16T01:40:07.173Z,16.50
2018-05-16T01:41:07.776Z,16.56
2018-05-16T01:42:08.490Z,16.53
2018-05-16T01:43:09.205Z,16.53
2018-05-16T01:44:09.918Z,16.47
2018-05-16T01:45:10.636Z,16.38
2018-05-16T01:46:11.359Z,16.46
2018-05-16T01:47:12.074Z,16.43
2018-05-16T01:48:12.796Z,16.35
2018-05-16T01:49:13.514Z,16.31
2018-05-16T01:50:14.239Z,16.24
2018-05-16T01:51:14.966Z,16.26
2018-05-16T01:52:15.680Z,16.26
2018-05-16T01:53:16.392Z,16.20
2018-05-16T01:54:17.122Z,16.23
2018-05-16T01:55:17.848Z,16.20
2018-05-16T01:56:18.561Z,16.31
2018-05-16T01:57:19.279Z,16.12
2018-05-16T01:58:19.992Z,16.08
2018-05-16T01:59:20.705Z,16.09
2018-05-16T02:00:21.500Z,16.04
2018-05-16T02:01:22.134Z,15.97
2018-05-16T02:02:22.847Z,15.97
2018-05-16T02:03:23.565Z,15.95
2018-05-16T02:04:24.274Z,15.88
2018-05-16T02:05:24.986Z,15.92
2018-05-16T02:06:25.701Z,15.86
2018-05-16T02:07:26.424Z,15.83
2018-05-16T02:08:27.137Z,15.90
2018-05-16T02:09:27.851Z,15.82
2018-05-16T02:10:28.565Z,15.83
2018-05-16T02:11:29.277Z,15.82
2018-05-16T02:12:30.005Z,15.79
2018-05-16T02:13:30.720Z,15.76
2018-05-16T02:14:31.433Z,15.72
2018-05-16T02:15:32.163Z,15.68
2018-05-16T02:16:32.884Z,15.75
2018-05-16T02:17:33.596Z,15.75
2018-05-16T02:18:34.309Z,15.76
2018-05-16T02:19:35.023Z,15.65
2018-05-16T02:20:35.737Z,15.76
2018-05-16T02:21:36.449Z,15.76
2018-05-16T02:22:37.179Z,15.82
2018-05-16T02:23:37.895Z,15.75
2018-05-16T02:24:38.608Z,15.86
2018-05-16T02:25:39.333Z,15.83
2018-05-16T02:26:40.044Z,15.82
2018-05-16T02:27:40.755Z,15.77
2018-05-16T02:28:41.466Z,15.76
2018-05-16T02:29:42.178Z,15.79
2018-05-16T02:30:42.891Z,15.86
2018-05-16T02:31:43.604Z,15.82
2018-05-16T02:32:44.318Z,15.86
2018-05-16T02:33:45.033Z,15.83
2018-05-16T02:34:45.755Z,15.88
2018-05-16T02:35:46.476Z,15.82
2018-05-16T02:36:47.185Z,15.80
2018-05-16T02:37:47.900Z,15.76
2018-05-16T02:38:48.613Z,15.70
2018-05-16T02:39:49.341Z,15.70
2018-05-16T02:40:50.058Z,15.72
2018-05-16T02:41:50.768Z,15.73
2018-05-16T02:42:51.485Z,15.70
2018-05-16T02:43:52.195Z,15.68
2018-05-16T02:44:52.908Z,15.73
2018-05-16T02:45:53.623Z,15.77
2018-05-16T02:46:54.335Z,15.80
2018-05-16T02:47:55.047Z,15.75
2018-05-16T02:48:55.759Z,15.77
2018-05-16T02:49:56.474Z,15.79
2018-05-16T02:50:57.189Z,15.76
2018-05-16T02:51:57.915Z,15.75
2018-05-16T02:52:58.632Z,15.83
2018-05-16T02:53:59.352Z,15.76
2018-05-16T02:55:00.078Z,15.83
2018-05-16T02:56:00.793Z,15.82
2018-05-16T02:57:01.504Z,15.88
2018-05-16T02:58:02.215Z,15.80
2018-05-16T02:59:02.931Z,15.79
2018-05-16T03:00:03.657Z,15.76
2018-05-16T03:01:04.373Z,15.80
2018-05-16T03:02:05.085Z,15.82
2018-05-16T03:03:05.804Z,15.76
2018-05-16T03:04:06.518Z,15.75
2018-05-16T03:05:07.234Z,15.70
2018-05-16T03:06:07.962Z,15.64
2018-05-16T03:07:08.676Z,15.65
2018-05-16T03:08:09.391Z,15.67
2018-05-16T03:09:10.112Z,15.70
2018-05-16T03:10:10.821Z,15.58
2018-05-16T03:11:11.536Z,15.55
2018-05-16T03:12:12.262Z,15.62
2018-05-16T03:13:12.986Z,15.57
2018-05-16T03:14:13.707Z,15.57
2018-05-16T03:15:14.421Z,15.44
2018-05-16T03:16:15.137Z,15.52
2018-05-16T03:17:15.861Z,15.57
2018-05-16T03:18:16.588Z,15.36
2018-05-16T03:19:17.305Z,15.37
2018-05-16T03:20:18.021Z,15.42
2018-05-16T03:21:18.736Z,15.46
2018-05-16T03:22:19.462Z,15.44
2018-05-16T03:23:20.188Z,15.40
2018-05-16T03:24:20.902Z,15.36
2018-05-16T03:25:21.619Z,15.33
2018-05-16T03:26:22.333Z,15.33
2018-05-16T03:27:23.062Z,15.27
2018-05-16T03:28:23.776Z,15.31
2018-05-16T03:29:24.507Z,15.18
2018-05-16T03:30:25.219Z,15.18
2018-05-16T03:31:25.935Z,15.14
2018-05-16T03:32:26.649Z,15.24
2018-05-16T03:33:27.364Z,15.21
2018-05-16T03:34:28.079Z,15.25
2018-05-16T03:35:28.795Z,15.17
2018-05-16T03:36:29.527Z,15.10
2018-05-16T03:37:30.244Z,15.19
2018-05-16T03:38:30.959Z,15.15
2018-05-16T03:39:31.674Z,15.17
2018-05-16T03:40:32.391Z,15.11
2018-05-16T03:41:33.108Z,15.07
2018-05-16T03:42:33.827Z,15.04
2018-05-16T03:43:34.553Z,15.15
2018-05-16T03:44:35.272Z,15.19
2018-05-16T03:45:35.989Z,15.17
2018-05-16T03:46:36.721Z,15.07
2018-05-16T03:47:37.452Z,15.09
2018-05-16T03:48:38.183Z,15.09
2018-05-16T03:49:38.901Z,15.14
2018-05-16T03:50:39.619Z,15.15
2018-05-16T03:51:40.336Z,15.14
2018-05-16T03:52:41.051Z,15.10
2018-05-16T03:53:41.766Z,15.14
2018-05-16T03:54:42.483Z,15.14
2018-05-16T03:55:43.202Z,15.11
2018-05-16T03:56:43.919Z,15.18
2018-05-16T03:57:44.636Z,15.18
2018-05-16T03:58:45.353Z,15.11
2018-05-16T03:59:46.071Z,15.10
2018-05-16T04:00:46.791Z,15.22
2018-05-16T04:01:47.508Z,15.17
2018-05-16T04:02:48.225Z,15.15
2018-05-16T04:03:48.941Z,15.21
2018-05-16T04:04:49.657Z,15.21
2018-05-16T04:05:50.376Z,15.19
2018-05-16T04:06:51.094Z,15.22
2018-05-16T04:07:51.810Z,15.17
2018-05-16T04:08:52.527Z,15.19
2018-05-16T04:09:53.244Z,15.17
2018-05-16T04:10:53.961Z,15.27
2018-05-16T04:11:54.677Z,15.35
2018-05-16T04:12:55.397Z,15.27
2018-05-16T04:13:56.115Z,15.31
2018-05-16T04:14:56.831Z,15.29
2018-05-16T04:15:57.564Z,15.28
2018-05-16T04:16:58.295Z,15.29
2018-05-16T04:17:59.013Z,15.29
2018-05-16T04:18:59.732Z,15.25
2018-05-16T04:20:00.453Z,15.39
2018-05-16T04:21:01.171Z,15.28
2018-05-16T04:22:01.889Z,15.31
2018-05-16T04:23:02.620Z,15.37
2018-05-16T04:24:03.341Z,15.35
2018-05-16T04:25:04.060Z,15.43
2018-05-16T04:26:04.795Z,15.37
2018-05-16T04:27:05.508Z,15.40
2018-05-16T04:28:06.227Z,15.49
2018-05-16T04:29:06.961Z,15.46
2018-05-16T04:30:07.682Z,15.42
2018-05-16T04:31:08.400Z,15.44
2018-05-16T04:32:09.131Z,15.44
2018-05-16T04:33:09.849Z,15.57
2018-05-16T04:34:10.571Z,15.49
2018-05-16T04:35:11.289Z,15.46
2018-05-16T04:36:12.025Z,15.46
2018-05-16T04:37:12.740Z,15.49
2018-05-16T04:38:13.459Z,15.57
2018-05-16T04:39:14.178Z,15.58
2018-05-16T04:40:14.897Z,15.57
2018-05-16T04:41:15.626Z,15.58
2018-05-16T04:42:16.345Z,15.59
2018-05-16T04:43:17.063Z,15.57
2018-05-16T04:44:17.797Z,15.65
2018-05-16T04:45:18.519Z,15.62
2018-05-16T04:46:19.246Z,15.59
2018-05-16T04:47:19.968Z,15.62
2018-05-16T04:48:20.685Z,15.68
2018-05-16T04:49:21.405Z,15.65
2018-05-16T04:50:22.141Z,15.72
2018-05-16T04:51:22.858Z,15.79
2018-05-16T04:52:23.588Z,15.79
2018-05-16T04:53:24.308Z,15.90
2018-05-16T04:54:25.027Z,15.84
2018-05-16T04:55:25.758Z,15.98
2018-05-16T04:56:26.476Z,15.98
2018-05-16T04:57:27.198Z,16.02
2018-05-16T04:58:27.929Z,16.13
2018-05-16T04:59:28.651Z,16.10
2018-05-16T05:00:29.369Z,16.05
2018-05-16T05:01:30.088Z,16.26
2018-05-16T05:02:30.809Z,16.26
2018-05-16T05:03:31.528Z,16.31
2018-05-16T05:04:32.251Z,16.32
2018-05-16T05:05:32.979Z,16.32
2018-05-16T05:06:33.698Z,16.33
2018-05-16T05:07:34.418Z,16.43
2018-05-16T05:08:35.140Z,16.35
2018-05-16T05:09:35.871Z,16.49
2018-05-16T05:10:36.601Z,16.51
2018-05-16T05:11:37.331Z,16.56
2018-05-16T05:12:38.103Z,16.53
2018-05-16T05:13:38.784Z,16.58
2018-05-16T05:14:39.504Z,16.61
2018-05-16T05:15:40.225Z,16.69
2018-05-16T05:16:40.942Z,16.76
2018-05-16T05:17:41.661Z,16.71
2018-05-16T05:18:42.428Z,16.75
2018-05-16T05:19:43.101Z,16.81
2018-05-16T05:20:43.819Z,16.81
2018-05-16T05:21:44.540Z,16.78
2018-05-16T05:22:45.260Z,16.79
2018-05-16T05:23:45.996Z,16.91
2018-05-16T05:24:46.712Z,16.87
2018-05-16T05:25:47.432Z,16.84
2018-05-16T05:26:48.150Z,16.94
2018-05-16T05:27:48.871Z,16.91
2018-05-16T05:28:49.833Z,17.05
2018-05-16T05:29:50.326Z,16.99
2018-05-16T05:30:51.060Z,17.02
2018-05-16T05:31:51.786Z,17.02
2018-05-16T05:32:52.501Z,17.06
2018-05-16T05:33:53.222Z,17.23
2018-05-16T05:34:53.943Z,17.22
2018-05-16T05:35:54.681Z,17.26
2018-05-16T05:36:55.466Z,17.33
2018-05-16T05:37:56.138Z,17.27
2018-05-16T05:38:56.868Z,17.33
2018-05-16T05:39:57.588Z,17.33
2018-05-16T05:40:58.308Z,17.29
2018-05-16T05:41:59.042Z,17.27
2018-05-16T05:42:59.765Z,17.41
2018-05-16T05:44:00.487Z,17.33
2018-05-16T05:45:01.209Z,17.41
2018-05-16T05:46:01.930Z,17.31
2018-05-16T05:47:02.652Z,17.42
2018-05-16T05:48:03.372Z,17.49
2018-05-16T05:49:04.103Z,17.57
2018-05-16T05:50:04.827Z,17.65
2018-05-16T05:51:05.549Z,17.67
2018-05-16T05:52:06.273Z,17.76
2018-05-16T05:53:06.997Z,17.79
2018-05-16T05:54:07.716Z,17.72
2018-05-16T05:55:08.446Z,17.72
2018-05-16T05:56:09.167Z,17.83
2018-05-16T05:57:09.888Z,17.86
2018-05-16T05:58:10.612Z,17.82
2018-05-16T05:59:11.335Z,17.90
2018-05-16T06:00:12.097Z,17.86
2018-05-16T06:01:12.776Z,18.00
2018-05-16T06:02:13.498Z,17.95
2018-05-16T06:03:14.217Z,18.07
2018-05-16T06:04:14.953Z,18.08
2018-05-16T06:05:15.672Z,18.11
2018-05-16T06:06:16.394Z,18.22
2018-05-16T06:07:17.117Z,18.26
2018-05-16T06:08:17.838Z,18.34
2018-05-16T06:09:18.569Z,18.40
2018-05-16T06:10:19.283Z,18.43
2018-05-16T06:11:20.017Z,18.44
2018-05-16T06:12:20.739Z,18.52
2018-05-16T06:13:21.461Z,18.56
2018-05-16T06:14:22.184Z,18.49
2018-05-16T06:15:22.905Z,18.60
2018-05-16T06:16:23.625Z,18.74
2018-05-16T06:17:24.351Z,18.62
2018-05-16T06:18:25.074Z,18.77
2018-05-16T06:19:25.847Z,18.80
2018-05-16T06:20:26.526Z,18.93
2018-05-16T06:21:27.259Z,19.00
2018-05-16T06:22:27.998Z,19.04
2018-05-16T06:23:28.718Z,19.18
2018-05-16T06:24:29.441Z,19.24
2018-05-16T06:25:30.166Z,19.34
2018-05-16T06:26:30.902Z,19.27
2018-05-16T06:27:31.624Z,19.39
2018-05-16T06:28:32.360Z,19.30
2018-05-16T06:29:33.083Z,19.41
2018-05-16T06:30:33.808Z,19.47
2018-05-16T06:31:34.531Z,19.39
2018-05-16T06:32:35.331Z,19.34
2018-05-16T06:33:35.977Z,19.45
2018-05-16T06:34:36.702Z,19.45
2018-05-16T06:35:37.438Z,19.37
2018-05-16T06:36:38.172Z,19.39
2018-05-16T06:37:38.894Z,19.40
2018-05-16T06:38:39.619Z,19.44
2018-05-16T06:39:40.341Z,19.30
2018-05-16T06:40:41.062Z,19.31
2018-05-16T06:41:41.784Z,19.36
2018-05-16T06:42:42.505Z,19.39
2018-05-16T06:43:43.228Z,19.31
2018-05-16T06:44:43.951Z,19.31
2018-05-16T06:45:44.679Z,19.30
2018-05-16T06:46:45.396Z,19.45
2018-05-16T06:47:46.131Z,19.56
2018-05-16T06:48:46.866Z,19.59
2018-05-16T06:49:47.589Z,19.51
2018-05-16T06:50:48.322Z,19.52
2018-05-16T06:51:49.045Z,19.51
2018-05-16T06:52:49.768Z,19.48
2018-05-16T06:53:50.492Z,19.49
2018-05-16T06:54:51.227Z,19.56
2018-05-16T06:55:51.963Z,19.58
2018-05-16T06:56:52.684Z,19.51
2018-05-16T06:57:53.406Z,19.54
2018-05-16T06:58:54.128Z,19.47
2018-05-16T06:59:54.929Z,19.55
2018-05-16T07:00:55.579Z,19.54
2018-05-16T07:01:56.298Z,19.51
2018-05-16T07:02:57.025Z,19.54
2018-05-16T07:03:57.806Z,19.40
2018-05-16T07:04:58.483Z,19.36
2018-05-16T07:05:59.210Z,19.44
2018-05-16T07:06:59.929Z,19.41
2018-05-16T07:08:00.652Z,19.34
2018-05-16T07:09:01.372Z,19.30
2018-05-16T07:10:02.091Z,19.27
2018-05-16T07:11:02.813Z,19.30
2018-05-16T07:12:03.534Z,19.29
2018-05-16T07:13:04.259Z,19.14
2018-05-16T07:14:04.979Z,19.19
2018-05-16T07:15:05.707Z,19.21
2018-05-16T07:16:06.436Z,19.14
2018-05-16T07:17:07.170Z,19.12
2018-05-16T07:18:07.897Z,19.11
2018-05-16T07:19:08.619Z,19.09
2018-05-16T07:20:09.342Z,19.22
2018-05-16T07:21:10.063Z,19.24
2018-05-16T07:22:10.787Z,19.26
2018-05-16T07:23:11.506Z,19.21
2018-05-16T07:24:12.231Z,19.21
2018-05-16T07:25:12.955Z,19.29
2018-05-16T07:26:13.677Z,19.33
2018-05-16T07:27:14.412Z,19.31
2018-05-16T07:28:15.137Z,19.22
2018-05-16T07:29:15.861Z,19.26
2018-05-16T07:30:16.594Z,19.30
2018-05-16T07:31:17.317Z,19.24
2018-05-16T07:32:18.091Z,19.19
2018-05-16T07:33:18.764Z,19.22
2018-05-16T07:34:19.486Z,19.24
2018-05-16T07:35:20.209Z,19.27
2018-05-16T07:36:20.934Z,19.12
2018-05-16T07:37:21.667Z,19.22
2018-05-16T07:38:22.391Z,19.22
2018-05-16T07:39:23.114Z,19.21
2018-05-16T07:40:23.836Z,19.09
2018-05-16T07:41:24.574Z,19.15
2018-05-16T07:42:25.310Z,19.08
2018-05-16T07:43:26.034Z,19.18
2018-05-16T07:44:26.756Z,19.26
2018-05-16T07:45:27.481Z,19.12
2018-05-16T07:46:28.205Z,19.21
2018-05-16T07:47:28.941Z,19.30
2018-05-16T07:48:29.679Z,19.26
2018-05-16T07:49:30.412Z,19.24
2018-05-16T07:50:31.142Z,19.16
2018-05-16T07:51:31.873Z,19.29
2018-05-16T07:52:32.591Z,19.19
2018-05-16T07:53:33.313Z,19.24
2018-05-16T07:54:34.047Z,19.24
2018-05-16T07:55:34.756Z,19.24
2018-05-16T07:56:35.493Z,19.19
2018-05-16T07:57:36.216Z,19.26
2018-05-16T07:58:36.940Z,19.24
2018-05-16T07:59:37.661Z,19.18
2018-05-16T08:00:38.385Z,19.11
2018-05-16T08:01:39.118Z,19.29
2018-05-16T08:02:39.880Z,19.26
2018-05-16T08:03:40.575Z,19.30
2018-05-16T08:04:41.300Z,19.33
2018-05-16T08:05:42.035Z,19.30
2018-05-16T08:06:42.761Z,19.37
2018-05-16T08:07:43.484Z,19.49
2018-05-16T08:08:44.210Z,19.52
2018-05-16T08:09:44.933Z,19.63
2018-05-16T08:10:45.658Z,19.73
2018-05-16T08:11:46.383Z,19.56
2018-05-16T08:12:47.120Z,19.76
2018-05-16T08:13:47.843Z,19.76
2018-05-16T08:14:48.567Z,19.88
2018-05-16T08:15:49.291Z,19.79
2018-05-16T08:16:50.029Z,19.85
2018-05-16T08:17:50.753Z,19.71
2018-05-16T08:18:51.490Z,19.82
2018-05-16T08:19:52.212Z,19.86
2018-05-16T08:20:52.938Z,19.81
2018-05-16T08:21:53.723Z,19.89
2018-05-16T08:22:54.388Z,19.77
2018-05-16T08:23:55.112Z,19.73
2018-05-16T08:24:55.838Z,19.88
2018-05-16T08:25:56.579Z,19.94
2018-05-16T08:26:57.296Z,20.00
2018-05-16T08:27:58.031Z,20.09
2018-05-16T08:28:58.758Z,20.26
2018-05-16T08:29:59.498Z,20.29
2018-05-16T08:31:00.314Z,20.32
2018-05-16T08:32:00.962Z,20.52
2018-05-16T08:33:01.689Z,20.47
2018-05-16T08:34:02.419Z,20.67
2018-05-16T08:35:03.146Z,20.69
2018-05-16T08:36:03.876Z,20.74
2018-05-16T08:37:04.607Z,20.87
2018-05-16T08:38:05.337Z,21.00
2018-05-16T08:39:06.069Z,21.06
2018-05-16T08:40:06.811Z,21.15
2018-05-16T08:41:07.541Z,21.24
2018-05-16T08:42:08.273Z,21.27
2018-05-16T08:43:09.017Z,21.69
2018-05-16T08:44:09.747Z,21.64
2018-05-16T08:45:10.481Z,21.80
2018-05-16T08:46:11.224Z,21.79
2018-05-16T08:47:11.954Z,21.96
2018-05-16T08:48:12.687Z,22.00
2018-05-16T08:49:13.417Z,22.13
2018-05-16T08:50:14.151Z,22.26
2018-05-16T08:51:14.879Z,22.33
2018-05-16T08:52:15.621Z,22.38
2018-05-16T08:53:16.350Z,22.48
2018-05-16T08:54:17.083Z,22.76
2018-05-16T08:55:17.810Z,22.91
2018-05-16T08:56:18.540Z,22.90
2018-05-16T08:57:19.271Z,22.98
2018-05-16T08:58:20.000Z,23.18
2018-05-16T08:59:20.730Z,23.20
2018-05-16T09:00:21.474Z,23.20
2018-05-16T09:01:22.215Z,23.37
2018-05-16T09:02:22.943Z,23.65
2018-05-16T09:03:23.686Z,23.63
2018-05-16T09:04:24.417Z,23.62
2018-05-16T09:05:25.144Z,23.66
2018-05-16T09:06:25.874Z,23.55
2018-05-16T09:07:26.606Z,23.68
2018-05-16T09:08:27.336Z,23.65
2018-05-16T09:09:28.071Z,23.59
2018-05-16T09:10:28.810Z,23.73
2018-05-16T09:11:29.540Z,23.80
2018-05-16T09:12:30.274Z,23.86
2018-05-16T09:13:31.014Z,23.95
2018-05-16T09:14:31.745Z,23.86
2018-05-16T09:15:32.475Z,23.74
2018-05-16T09:16:33.207Z,23.63
2018-05-16T09:17:33.937Z,23.80
2018-05-16T09:18:34.667Z,23.88
2018-05-16T09:19:35.400Z,23.95
2018-05-16T09:20:36.131Z,24.24
2018-05-16T09:21:36.863Z,24.16
2018-05-16T09:22:37.595Z,24.14
2018-05-16T09:23:38.327Z,24.45
2018-05-16T09:24:39.073Z,24.24
2018-05-16T09:25:39.806Z,24.40
2018-05-16T09:26:40.548Z,24.33
2018-05-16T09:27:41.281Z,24.45
2018-05-16T09:28:42.011Z,24.60
2018-05-16T09:29:42.746Z,24.76
2018-05-16T09:30:43.476Z,24.54
2018-05-16T09:31:44.210Z,24.45
2018-05-16T09:32:44.939Z,24.45
2018-05-16T09:33:45.670Z,24.16
2018-05-16T09:34:46.403Z,24.10
2018-05-16T09:35:47.133Z,23.84
2018-05-16T09:36:47.862Z,23.71
2018-05-16T09:37:48.593Z,23.73
2018-05-16T09:38:49.321Z,23.68
2018-05-16T09:39:50.050Z,23.44
2018-05-16T09:40:50.779Z,23.25
2018-05-16T09:41:51.521Z,23.17
2018-05-16T09:42:52.264Z,22.94
2018-05-16T09:43:52.993Z,22.93
2018-05-16T09:44:53.723Z,23.06
2018-05-16T09:45:54.516Z,23.12
2018-05-16T09:46:55.181Z,23.10
2018-05-16T09:47:55.906Z,23.23
2018-05-16T09:48:56.637Z,23.28
2018-05-16T09:49:57.368Z,23.20
2018-05-16T09:50:58.097Z,23.20
2018-05-16T09:51:58.835Z,23.31
2018-05-16T09:52:59.566Z,23.43
2018-05-16T09:54:00.294Z,23.06
2018-05-16T09:55:01.023Z,23.36
2018-05-16T09:56:01.751Z,23.20
2018-05-16T09:57:02.481Z,23.18
2018-05-16T09:58:03.207Z,23.50
2018-05-16T09:59:03.937Z,23.58
2018-05-16T10:00:04.671Z,23.55
2018-05-16T10:01:05.395Z,23.61
2018-05-16T10:02:06.124Z,23.88
2018-05-16T10:03:06.857Z,23.98
2018-05-16T10:04:07.586Z,24.06
2018-05-16T10:05:08.315Z,24.17
2018-05-16T10:06:09.057Z,24.40
2018-05-16T10:07:09.805Z,24.42
2018-05-16T10:08:10.530Z,24.42
2018-05-16T10:09:11.270Z,24.60
2018-05-16T10:10:12.000Z,24.54
2018-05-16T10:11:12.812Z,24.61
2018-05-16T10:12:13.460Z,24.60
2018-05-16T10:13:14.190Z,24.78
2018-05-16T10:14:14.921Z,24.85
2018-05-16T10:15:15.665Z,24.85
2018-05-16T10:16:16.406Z,24.86
2018-05-16T10:17:17.136Z,24.78
2018-05-16T10:18:17.880Z,24.92
2018-05-16T10:19:18.612Z,25.08
2018-05-16T10:20:19.378Z,25.08
2018-05-16T10:21:20.075Z,25.17
2018-05-16T10:22:20.802Z,25.08
2018-05-16T10:23:21.531Z,25.04
2018-05-16T10:24:22.261Z,25.03
2018-05-16T10:25:23.003Z,24.81
2018-05-16T10:26:23.734Z,24.85
2018-05-16T10:27:24.475Z,24.74
2018-05-16T10:28:25.203Z,24.65
2018-05-16T10:29:25.930Z,24.63
2018-05-16T10:30:26.672Z,24.45
2018-05-16T10:31:27.398Z,24.40
2018-05-16T10:32:28.131Z,24.24
2018-05-16T10:33:28.856Z,24.43
2018-05-16T10:34:29.597Z,24.53
2018-05-16T10:35:30.313Z,24.60
2018-05-16T10:36:31.042Z,24.86
2018-05-16T10:37:31.772Z,24.88
2018-05-16T10:38:32.500Z,25.06
2018-05-16T10:39:33.231Z,25.11
2018-05-16T10:40:33.958Z,25.26
2018-05-16T10:41:34.767Z,25.29
2018-05-16T10:42:35.425Z,25.40
2018-05-16T10:43:36.171Z,25.55
2018-05-16T10:44:36.902Z,25.68
2018-05-16T10:45:37.644Z,25.81
2018-05-16T10:46:38.372Z,25.65
2018-05-16T10:47:39.115Z,25.73
2018-05-16T10:48:39.848Z,25.81
2018-05-16T10:49:40.580Z,25.85
2018-05-16T10:50:41.317Z,26.00
2018-05-16T10:51:42.047Z,26.37
2018-05-16T10:52:42.774Z,26.59
2018-05-16T10:53:43.504Z,26.62
2018-05-16T10:54:44.235Z,26.68
2018-05-16T10:55:44.968Z,26.78
2018-05-16T10:56:45.714Z,26.89
2018-05-16T10:57:46.445Z,27.18
2018-05-16T10:58:47.179Z,27.21
2018-05-16T10:59:47.912Z,27.30
2018-05-16T11:00:48.647Z,27.07
2018-05-16T11:01:49.391Z,27.15
2018-05-16T11:02:50.121Z,27.37
2018-05-16T11:03:50.853Z,27.12
2018-05-16T11:04:51.584Z,26.95
2018-05-16T11:05:52.317Z,27.07
2018-05-16T11:06:53.047Z,27.14
2018-05-16T11:07:53.791Z,27.14
2018-05-16T11:08:54.519Z,27.07
2018-05-16T11:09:55.249Z,27.08
2018-05-16T11:10:55.990Z,26.83
2018-05-16T11:11:56.723Z,26.52
2018-05-16T11:12:57.451Z,26.59
2018-05-16T11:13:58.182Z,26.43
2018-05-16T11:14:58.913Z,26.55
2018-05-16T11:15:59.641Z,26.68
2018-05-16T11:17:00.370Z,26.53
2018-05-16T11:18:01.102Z,26.34
2018-05-16T11:19:01.832Z,26.43
2018-05-16T11:20:02.566Z,26.44
2018-05-16T11:21:03.305Z,26.25
2018-05-16T11:22:04.033Z,26.36
2018-05-16T11:23:04.763Z,26.29
2018-05-16T11:24:05.492Z,26.47
2018-05-16T11:25:06.223Z,26.45
2018-05-16T11:26:06.955Z,26.63
2018-05-16T11:27:07.695Z,26.63
2018-05-16T11:28:08.426Z,26.70
2018-05-16T11:29:09.156Z,26.73
2018-05-16T11:30:09.887Z,26.78
2018-05-16T11:31:10.623Z,27.03
2018-05-16T11:32:11.348Z,27.10
2018-05-16T11:33:12.077Z,27.02
2018-05-16T11:34:12.807Z,27.18
2018-05-16T11:35:13.537Z,27.05
2018-05-16T11:36:14.273Z,27.29
2018-05-16T11:37:15.012Z,27.36
2018-05-16T11:38:15.742Z,27.11
2018-05-16T11:39:16.473Z,27.29
2018-05-16T11:40:17.206Z,27.44
2018-05-16T11:41:17.937Z,27.44
2018-05-16T11:42:18.713Z,27.30
2018-05-16T11:43:19.460Z,27.27
2018-05-16T11:44:20.150Z,27.33
2018-05-16T11:45:20.883Z,27.55
2018-05-16T11:46:21.617Z,27.59
2018-05-16T11:47:22.346Z,27.77
2018-05-16T11:48:23.081Z,27.75
2018-05-16T11:49:23.825Z,27.82
2018-05-16T11:50:24.570Z,27.47
2018-05-16T11:51:25.316Z,27.49
2018-05-16T11:52:26.050Z,27.45
2018-05-16T11:53:26.786Z,27.52
2018-05-16T11:54:27.526Z,27.27
2018-05-16T11:55:28.265Z,27.32
2018-05-16T11:56:28.996Z,27.58
2018-05-16T11:57:29.727Z,27.42
2018-05-16T11:58:30.463Z,27.29
2018-05-16T11:59:31.194Z,27.30
2018-05-16T12:00:31.928Z,27.18
2018-05-16T12:01:32.661Z,27.07
2018-05-16T12:02:33.408Z,27.05
2018-05-16T12:03:34.140Z,26.85
2018-05-16T12:04:34.872Z,27.05
2018-05-16T12:05:35.604Z,27.15
2018-05-16T12:06:36.335Z,27.26
2018-05-16T12:07:37.066Z,27.03
2018-05-16T12:08:37.808Z,27.14
2018-05-16T12:09:38.538Z,26.92
2018-05-16T12:10:39.270Z,26.93
2018-05-16T12:11:40.003Z,26.63
2018-05-16T12:12:40.733Z,26.43
2018-05-16T12:13:41.464Z,26.53
2018-05-16T12:14:42.323Z,26.21
2018-05-16T12:15:42.935Z,26.62
2018-05-16T12:16:43.682Z,26.43
2018-05-16T12:17:44.429Z,26.71
2018-05-16T12:18:45.159Z,26.75
2018-05-16T12:19:45.892Z,26.89
2018-05-16T12:20:46.702Z,27.07
2018-05-16T12:21:47.469Z,27.12
2018-05-16T12:22:48.120Z,27.33
2018-05-16T12:23:48.852Z,27.26
2018-05-16T12:24:49.583Z,27.12
2018-05-16T12:25:50.312Z,27.33
2018-05-16T12:26:51.045Z,27.55
2018-05-16T12:27:51.777Z,27.42
2018-05-16T12:28:52.596Z,27.05
2018-05-16T12:29:53.241Z,27.30
2018-05-16T12:30:53.966Z,27.35
2018-05-16T12:31:54.711Z,27.35
2018-05-16T12:32:55.443Z,27.36
2018-05-16T12:33:56.181Z,27.27
2018-05-16T12:34:56.949Z,27.39
2018-05-16T12:35:57.636Z,27.33
2018-05-16T12:36:58.367Z,27.03
2018-05-16T12:37:59.113Z,27.10
2018-05-16T12:38:59.830Z,26.99
2018-05-16T12:40:00.560Z,26.85
2018-05-16T12:41:01.292Z,26.81
2018-05-16T12:42:02.029Z,26.43
2018-05-16T12:43:02.764Z,26.63
2018-05-16T12:44:03.510Z,26.58
2018-05-16T12:45:04.237Z,26.73
2018-05-16T12:46:04.981Z,26.53
2018-05-16T12:47:05.710Z,26.68
2018-05-16T12:48:06.440Z,26.73
2018-05-16T12:49:07.177Z,26.70
2018-05-16T12:50:07.902Z,26.58
2018-05-16T12:51:58.397Z,26.81
2018-05-16T12:52:59.128Z,27.00
2018-05-16T12:53:59.860Z,27.02
2018-05-16T12:55:00.604Z,27.02
2018-05-16T12:56:01.333Z,27.05
2018-05-16T12:57:02.069Z,26.99
2018-05-16T12:58:02.801Z,26.44
2018-05-16T12:59:03.543Z,26.56
2018-05-16T13:00:04.271Z,26.19
2018-05-16T13:01:05.014Z,26.31
2018-05-16T13:02:05.750Z,26.31
2018-05-16T13:03:06.487Z,26.13